Time;durP1;ratioP1;P1;durP2;ratioP2;P2;SDS_P1;SDS_P2;PMS_P1;PMS_P2;Temp;Humidity;BMP_temperature;BMP_pressure;BME280_temperature;BME280_humidity;BME280_pressure;Samples;Min_cycle;Max_cycle;Signal;HPM_P1;HPM_P2
2023/04/18 00:02:17;;;;;;;39.83;28.10;;;9.70;99.90;;;;;;5093240;28;20538;-71
2023/04/18 00:04:46;;;;;;;37.50;27.73;;;9.70;99.90;;;;;;5094083;28;20585;-71
2023/04/18 00:07:16;;;;;;;38.27;27.83;;;9.70;99.90;;;;;;5092222;28;20595;-71
2023/04/18 00:10:00;;;;;;;39.27;27.87;;;9.70;99.90;;;;;;5093817;28;20218;-72
2023/04/18 00:12:26;;;;;;;36.20;27.23;;;9.70;99.90;;;;;;5092859;28;20164;-71
2023/04/18 00:14:52;;;;;;;41.33;28.30;;;9.70;99.90;;;;;;5093955;28;20171;-71
2023/04/18 00:17:19;;;;;;;35.63;26.80;;;9.70;99.90;;;;;;5093969;28;20196;-71
2023/04/18 00:19:45;;;;;;;36.63;27.13;;;9.60;99.90;;;;;;5093722;28;20171;-72
2023/04/18 00:22:12;;;;;;;37.93;27.63;;;9.60;99.90;;;;;;5092432;28;20172;-71
2023/04/18 00:24:39;;;;;;;34.87;26.90;;;9.60;99.90;;;;;;5093732;28;20175;-71
2023/04/18 00:27:04;;;;;;;36.00;27.50;;;9.60;99.90;;;;;;5093693;28;20253;-71
2023/04/18 00:29:30;;;;;;;36.57;27.83;;;9.60;99.90;;;;;;5093499;28;20245;-71
2023/04/18 00:31:56;;;;;;;36.43;27.40;;;9.50;99.90;;;;;;5092676;28;20290;-71
2023/04/18 00:34:22;;;;;;;35.70;27.97;;;9.50;99.90;;;;;;5093408;28;20168;-71
2023/04/18 00:36:48;;;;;;;33.77;26.43;;;9.50;99.90;;;;;;5093254;28;20548;-71
2023/04/18 00:39:13;;;;;;;37.20;27.30;;;9.40;99.90;;;;;;5093582;28;20183;-71
2023/04/18 00:41:39;;;;;;;39.90;27.90;;;9.40;99.90;;;;;;5093326;28;20223;-71
2023/04/18 00:44:05;;;;;;;41.13;27.80;;;9.40;99.90;;;;;;5093423;28;20627;-71
2023/04/18 00:46:30;;;;;;;37.33;28.67;;;9.40;99.90;;;;;;5093411;28;20243;-71
2023/04/18 00:49:02;;;;;;;35.30;26.70;;;9.40;99.90;;;;;;5093023;28;20202;-71
2023/04/18 00:51:28;;;;;;;41.07;28.83;;;9.30;99.90;;;;;;5093347;28;20255;-71
2023/04/18 00:53:54;;;;;;;36.20;27.40;;;9.30;99.90;;;;;;5093128;28;20259;-71
2023/04/18 00:56:22;;;;;;;34.60;27.47;;;9.30;99.90;;;;;;5092358;28;20213;-71
2023/04/18 00:58:51;;;;;;;39.23;29.13;;;9.30;99.90;;;;;;5093156;28;20172;-71
2023/04/18 01:01:19;;;;;;;39.87;28.40;;;9.30;99.90;;;;;;5093049;28;20206;-71
2023/04/18 01:03:44;;;;;;;38.60;29.07;;;9.30;99.90;;;;;;5092933;28;20176;-71
2023/04/18 01:06:10;;;;;;;37.07;28.07;;;9.30;99.90;;;;;;5092736;28;20176;-71
2023/04/18 01:08:43;;;;;;;37.03;27.80;;;9.20;99.90;;;;;;5093247;28;20164;-71
2023/04/18 01:11:11;;;;;;;39.13;29.27;;;9.10;99.90;;;;;;5091845;28;20220;-70
2023/04/18 01:13:37;;;;;;;36.43;27.60;;;9.10;99.90;;;;;;5092861;28;20194;-71
2023/04/18 01:16:02;;;;;;;39.97;28.90;;;9.10;99.90;;;;;;5092687;28;20627;-70
2023/04/18 01:18:30;;;;;;;40.07;29.33;;;9.10;99.90;;;;;;5093021;28;20255;-71
2023/04/18 01:20:58;;;;;;;37.87;28.80;;;9.10;99.90;;;;;;5092500;28;20168;-70
2023/04/18 01:23:24;;;;;;;37.93;29.33;;;9.10;99.90;;;;;;5093044;28;20167;-70
2023/04/18 01:25:50;;;;;;;40.60;29.67;;;9.00;99.90;;;;;;5092724;28;20169;-70
2023/04/18 01:28:20;;;;;;;46.00;29.90;;;9.00;99.90;;;;;;5092785;28;20178;-71
2023/04/18 01:30:45;;;;;;;43.33;29.87;;;9.00;99.90;;;;;;5092573;28;20206;-71
2023/04/18 01:33:11;;;;;;;41.43;29.17;;;9.00;99.90;;;;;;5092957;28;20168;-71
2023/04/18 01:35:40;;;;;;;42.93;30.20;;;8.90;99.90;;;;;;5092450;28;20173;-71
2023/04/18 01:38:08;;;;;;;40.67;30.87;;;8.90;99.90;;;;;;5092719;28;20190;-71
2023/04/18 01:40:34;;;;;;;40.73;30.33;;;8.70;99.90;;;;;;5092506;28;20276;-70
2023/04/18 01:42:59;;;;;;;40.20;29.23;;;8.70;99.90;;;;;;5092848;28;20168;-71
2023/04/18 01:45:25;;;;;;;45.03;30.57;;;8.70;99.90;;;;;;5092333;28;20251;-71
2023/04/18 01:47:51;;;;;;;42.73;30.47;;;8.70;99.90;;;;;;5092689;28;20160;-71
2023/04/18 01:50:19;;;;;;;40.63;29.90;;;8.60;99.90;;;;;;5092148;28;20675;-71
2023/04/18 01:52:44;;;;;;;43.80;31.43;;;8.60;99.90;;;;;;5092747;28;20225;-71
2023/04/18 01:55:10;;;;;;;43.00;30.83;;;8.50;99.90;;;;;;5092447;28;20574;-70
2023/04/18 01:57:39;;;;;;;44.07;30.80;;;8.60;99.90;;;;;;5092377;28;20169;-71
2023/04/18 02:00:06;;;;;;;41.43;29.70;;;8.60;99.90;;;;;;5092489;28;20172;-71
2023/04/18 02:02:32;;;;;;;43.40;30.67;;;8.50;99.90;;;;;;5092826;28;20176;-71
2023/04/18 02:04:57;;;;;;;45.53;31.20;;;8.50;99.90;;;;;;5091904;28;20250;-71
2023/04/18 02:07:26;;;;;;;45.37;29.60;;;8.50;99.90;;;;;;5092300;28;20204;-70
2023/04/18 02:09:52;;;;;;;44.80;32.33;;;8.40;99.90;;;;;;5096216;28;20204;-71
2023/04/18 02:12:17;;;;;;;44.37;31.70;;;8.40;99.90;;;;;;5096204;28;20168;-71
2023/04/18 02:14:43;;;;;;;49.93;32.03;;;8.40;99.90;;;;;;5096018;28;20209;-70
2023/04/18 02:17:09;;;;;;;44.97;32.70;;;8.40;99.90;;;;;;5096332;28;20188;-71
2023/04/18 02:19:34;;;;;;;44.67;31.60;;;8.40;99.90;;;;;;5095622;28;20172;-71
2023/04/18 02:22:03;;;;;;;41.90;31.23;;;8.40;99.90;;;;;;5096241;28;20172;-72
2023/04/18 02:24:28;;;;;;;45.50;32.00;;;8.40;99.90;;;;;;5095850;28;20650;-72
2023/04/18 02:26:54;;;;;;;45.33;31.90;;;8.40;99.90;;;;;;5096016;28;20190;-71
2023/04/18 02:29:19;;;;;;;42.87;31.77;;;8.40;99.90;;;;;;5096082;28;20234;-71
2023/04/18 02:31:45;;;;;;;46.97;31.17;;;8.40;99.90;;;;;;5095956;28;20168;-70
2023/04/18 02:34:11;;;;;;;43.63;31.07;;;8.40;99.90;;;;;;5095679;28;20213;-70
2023/04/18 02:36:36;;;;;;;43.40;31.40;;;8.30;99.90;;;;;;5095694;28;20663;-70
2023/04/18 02:39:02;;;;;;;43.83;32.97;;;8.20;99.90;;;;;;5096124;28;20650;-71
2023/04/18 02:41:27;;;;;;;39.93;30.60;;;8.20;99.90;;;;;;5095210;28;20219;-70
2023/04/18 02:43:54;;;;;;;44.37;31.07;;;8.10;99.90;;;;;;5095820;28;20172;-70
2023/04/18 02:46:20;;;;;;;43.70;31.77;;;8.10;99.90;;;;;;5095408;28;20206;-70
2023/04/18 02:48:45;;;;;;;43.00;30.57;;;8.00;99.90;;;;;;5094179;28;20171;-70
2023/04/18 02:51:11;;;;;;;49.50;32.10;;;8.00;99.90;;;;;;5095544;28;20643;-70
2023/04/18 02:53:36;;;;;;;44.17;31.33;;;7.90;99.90;;;;;;5095839;28;20171;-70
2023/04/18 02:56:02;;;;;;;45.70;32.73;;;7.90;99.90;;;;;;5095202;28;20218;-71
2023/04/18 02:58:33;;;;;;;49.03;32.27;;;7.90;99.90;;;;;;5095368;28;20306;-71
2023/04/18 03:00:59;;;;;;;42.50;31.17;;;7.90;99.90;;;;;;5095037;28;20172;-71
2023/04/18 03:03:24;;;;;;;43.37;31.77;;;7.90;99.90;;;;;;5095426;28;20175;-70
2023/04/18 03:05:50;;;;;;;49.00;32.53;;;7.90;99.90;;;;;;5095277;28;20512;-71
2023/04/18 03:08:15;;;;;;;44.77;32.07;;;7.80;99.90;;;;;;5095426;28;20167;-71
2023/04/18 03:10:41;;;;;;;45.83;31.03;;;7.80;99.90;;;;;;5094839;28;20212;-71
2023/04/18 03:13:07;;;;;;;46.60;31.10;;;7.80;99.90;;;;;;5095135;28;20488;-70
2023/04/18 03:15:32;;;;;;;39.47;28.70;;;7.80;99.90;;;;;;5094791;28;20172;-71
2023/04/18 03:17:58;;;;;;;42.80;30.73;;;7.70;99.90;;;;;;5095024;28;20164;-71
2023/04/18 03:20:24;;;;;;;43.93;31.00;;;7.70;99.90;;;;;;5093723;28;20246;-71
2023/04/18 03:22:49;;;;;;;51.07;31.03;;;7.70;99.90;;;;;;5094843;28;20275;-70
2023/04/18 03:25:18;;;;;;;42.47;29.17;;;7.60;99.90;;;;;;5094686;28;20164;-71
2023/04/18 03:27:44;;;;;;;39.00;28.77;;;7.60;99.90;;;;;;5094682;28;20194;-72
2023/04/18 03:30:12;;;;;;;44.37;30.27;;;7.50;99.90;;;;;;5094236;28;20199;-71
2023/04/18 03:32:37;;;;;;;44.57;29.20;;;7.60;99.90;;;;;;5094851;28;20190;-71
2023/04/18 03:35:03;;;;;;;42.37;30.57;;;7.60;99.90;;;;;;5094315;28;20666;-70
2023/04/18 03:37:29;;;;;;;39.30;27.43;;;7.60;99.90;;;;;;5092923;28;20188;-72
2023/04/18 03:39:54;;;;;;;36.83;26.03;;;7.50;99.90;;;;;;5093023;28;20222;-71
2023/04/18 03:42:20;;;;;;;43.67;28.50;;;7.60;99.90;;;;;;5094123;28;20509;-70
2023/04/18 03:44:46;;;;;;;44.53;29.17;;;7.60;99.90;;;;;;5094090;28;20180;-72
2023/04/18 03:47:15;;;;;;;33.87;27.07;;;7.50;99.90;;;;;;5092623;28;20274;-71
2023/04/18 03:49:44;;;;;;;43.03;28.60;;;7.50;99.90;;;;;;5094229;28;20227;-72
2023/04/18 03:52:12;;;;;;;40.03;28.40;;;7.50;99.90;;;;;;5091697;28;20172;-70
2023/04/18 03:54:38;;;;;;;42.40;28.03;;;7.50;99.90;;;;;;5092518;28;20179;-72
2023/04/18 03:57:03;;;;;;;38.33;28.10;;;7.40;99.90;;;;;;5093345;28;20527;-71
2023/04/18 03:59:29;;;;;;;40.53;27.37;;;7.40;99.90;;;;;;5093801;28;20172;-71
2023/04/18 04:01:55;;;;;;;40.23;27.13;;;7.40;99.90;;;;;;5093637;28;20197;-70
2023/04/18 04:04:21;;;;;;;39.50;27.57;;;7.40;99.90;;;;;;5093921;28;20292;-71
2023/04/18 04:06:46;;;;;;;40.87;28.67;;;7.30;99.90;;;;;;5093444;28;20582;-70
2023/04/18 04:09:12;;;;;;;40.17;27.47;;;7.30;99.90;;;;;;5093547;28;20261;-71
2023/04/18 04:11:40;;;;;;;37.10;27.90;;;7.30;99.90;;;;;;5093366;28;20224;-71
2023/04/18 04:14:06;;;;;;;39.03;26.50;;;7.30;99.90;;;;;;5091826;28;20172;-70
2023/04/18 04:16:32;;;;;;;43.90;27.60;;;7.30;99.90;;;;;;5093190;28;20647;-70
2023/04/18 04:19:00;;;;;;;39.37;26.10;;;7.20;99.90;;;;;;5093300;28;20175;-72
2023/04/18 04:21:26;;;;;;;41.53;26.63;;;7.20;99.90;;;;;;5093234;28;20225;-71
2023/04/18 04:23:52;;;;;;;39.30;24.93;;;7.20;99.90;;;;;;5093144;28;20627;-71
2023/04/18 04:26:17;;;;;;;40.07;25.43;;;7.20;99.90;;;;;;5093468;28;20195;-71
2023/04/18 04:28:45;;;;;;;41.63;25.87;;;7.10;99.90;;;;;;5093304;28;20183;-71
2023/04/18 04:31:11;;;;;;;42.33;26.47;;;7.10;99.90;;;;;;5093021;28;20168;-70
2023/04/18 04:33:37;;;;;;;36.33;25.10;;;7.10;99.90;;;;;;5093082;28;20484;-71
2023/04/18 04:36:05;;;;;;;37.67;25.03;;;7.10;99.90;;;;;;5092781;28;20176;-72
2023/04/18 04:38:31;;;;;;;38.20;24.10;;;7.00;99.90;;;;;;5093595;28;20204;-71
2023/04/18 04:40:57;;;;;;;33.00;22.10;;;7.10;99.90;;;;;;5092373;28;20250;-71
2023/04/18 04:43:23;;;;;;;33.70;22.70;;;7.00;99.90;;;;;;5092862;28;20211;-71
2023/04/18 04:45:51;;;;;;;35.27;20.73;;;7.00;99.90;;;;;;5093199;28;20628;-71
2023/04/18 04:48:18;;;;;;;37.03;23.00;;;7.00;99.90;;;;;;5092704;28;20261;-71
2023/04/18 04:50:51;;;;;;;36.13;22.30;;;7.10;99.90;;;;;;5092748;28;20199;-72
2023/04/18 04:53:17;;;;;;;35.83;22.57;;;7.00;99.90;;;;;;5092285;28;20205;-71
2023/04/18 04:55:43;;;;;;;35.50;23.40;;;7.00;99.90;;;;;;5092744;28;20281;-71
2023/04/18 04:58:08;;;;;;;36.33;22.10;;;7.00;99.90;;;;;;5092411;28;20168;-70
2023/04/18 05:00:34;;;;;;;34.20;22.53;;;7.10;99.90;;;;;;5092684;28;20175;-71
2023/04/18 05:03:02;;;;;;;33.17;21.77;;;7.20;99.90;;;;;;5092444;28;20519;-71
2023/04/18 05:05:29;;;;;;;34.17;22.53;;;7.40;99.90;;;;;;5092193;28;20207;-70
2023/04/18 05:08:00;;;;;;;34.33;20.83;;;7.60;99.90;;;;;;5091343;28;20168;-71
2023/04/18 05:10:26;;;;;;;38.20;20.57;;;8.00;99.90;;;;;;5092094;28;20737;-70
2023/04/18 05:12:54;;;;;;;32.17;19.97;;;8.20;99.90;;;;;;5091843;28;20307;-71
2023/04/18 05:15:20;;;;;;;28.03;19.60;;;8.40;94.90;;;;;;5092198;28;20167;-71
2023/04/18 05:17:46;;;;;;;31.60;19.90;;;8.70;94.70;;;;;;5091787;28;20218;-70
2023/04/18 05:20:11;;;;;;;27.33;17.67;;;9.00;76.40;;;;;;5091193;28;20201;-72
2023/04/18 05:22:37;;;;;;;29.43;17.97;;;9.20;56.00;;;;;;5091776;28;20530;-71
2023/04/18 05:25:03;;;;;;;24.60;17.43;;;9.40;54.50;;;;;;5090535;28;20168;-71
2023/04/18 05:27:31;;;;;;;24.63;16.60;;;9.50;38.20;;;;;;5091528;28;20164;-72
2023/04/18 05:29:56;;;;;;;24.00;15.97;;;9.80;32.90;;;;;;5090822;28;20200;-71
2023/04/18 05:32:22;;;;;;;20.57;14.97;;;9.90;17.20;;;;;;5091604;28;20241;-72
2023/04/18 05:34:48;;;;;;;27.90;16.03;;;10.00;18.50;;;;;;5092142;28;20203;-72
2023/04/18 05:37:13;;;;;;;20.83;14.63;;;10.20;11.90;;;;;;5089725;28;20609;-72
2023/04/18 05:39:40;;;;;;;23.70;14.90;;;10.60;8.70;;;;;;5091961;28;20719;-73
2023/04/18 05:42:05;;;;;;;21.67;15.30;;;11.10;1.00;;;;;;5092089;28;20306;-72
2023/04/18 05:44:31;;;;;;;25.53;14.83;;;11.30;1.00;;;;;;5095917;28;20178;-72
2023/04/18 05:46:57;;;;;;;18.63;13.93;;;11.30;1.00;;;;;;5095454;28;20262;-74
2023/04/18 05:49:22;;;;;;;18.87;13.33;;;11.20;1.00;;;;;;5095565;28;20208;-73
2023/04/18 05:51:48;;;;;;;18.63;13.60;;;11.00;1.00;;;;;;5094658;28;20183;-72
2023/04/18 05:54:20;;;;;;;17.60;14.13;;;11.40;1.00;;;;;;5095695;28;20176;-72
2023/04/18 05:56:46;;;;;;;23.80;14.70;;;11.30;1.00;;;;;;5094704;28;20168;-72
2023/04/18 05:59:11;;;;;;;22.37;13.90;;;10.40;1.00;;;;;;5095687;28;20325;-72
2023/04/18 06:01:38;;;;;;;17.43;13.97;;;10.20;1.00;;;;;;5094955;28;20179;-72
2023/04/18 06:04:04;;;;;;;20.80;14.13;;;10.10;1.00;;;;;;5095720;28;20180;-72
2023/04/18 06:06:30;;;;;;;17.67;13.00;;;10.60;1.00;;;;;;5095007;28;20191;-72
2023/04/18 06:08:56;;;;;;;15.20;13.60;;;11.30;1.00;;;;;;5095071;28;20175;-73
2023/04/18 06:11:21;;;;;;;22.00;13.33;;;11.40;1.00;;;;;;5094175;28;20263;-73
2023/04/18 06:13:47;;;;;;;16.03;13.47;;;11.80;1.00;;;;;;5092931;28;20172;-72
2023/04/18 06:16:13;;;;;;;14.67;13.03;;;12.10;1.00;;;;;;5093072;28;20268;-72
2023/04/18 06:18:38;;;;;;;13.27;11.47;;;12.50;1.00;;;;;;5094619;28;20549;-72
2023/04/18 06:21:04;;;;;;;15.20;12.57;;;12.70;1.00;;;;;;5095168;28;20175;-72
2023/04/18 06:23:30;;;;;;;16.33;12.43;;;12.60;1.00;;;;;;5094281;28;20180;-72
2023/04/18 06:25:56;;;;;;;14.67;11.83;;;12.90;1.00;;;;;;5094399;28;20172;-72
2023/04/18 06:28:22;;;;;;;14.73;11.80;;;12.50;1.00;;;;;;5094756;28;20172;-73
2023/04/18 06:30:48;;;;;;;14.20;12.10;;;12.90;1.00;;;;;;5094641;28;20281;-74
2023/04/18 06:33:14;;;;;;;13.93;11.07;;;13.10;1.00;;;;;;5094454;28;20171;-73
2023/04/18 06:35:40;;;;;;;14.30;10.97;;;13.10;1.00;;;;;;5094749;28;20179;-73
2023/04/18 06:38:06;;;;;;;11.23;9.40;;;13.60;1.00;;;;;;5094281;28;20191;-73
2023/04/18 06:40:31;;;;;;;13.40;11.37;;;13.20;1.00;;;;;;5093714;28;20560;-73
2023/04/18 06:42:57;;;;;;;16.97;11.27;;;13.00;1.00;;;;;;5094370;28;20259;-72
2023/04/18 06:45:23;;;;;;;16.53;11.47;;;12.80;1.00;;;;;;5094881;28;20203;-74
2023/04/18 06:47:50;;;;;;;13.20;10.87;;;13.00;1.00;;;;;;5093026;28;20653;-74
2023/04/18 06:50:16;;;;;;;12.40;10.77;;;13.10;1.00;;;;;;5094207;28;20206;-74
2023/04/18 06:52:44;;;;;;;12.27;10.97;;;13.00;1.00;;;;;;5094119;28;20164;-74
2023/04/18 06:55:11;;;;;;;12.43;11.13;;;13.00;1.00;;;;;;5092495;28;20551;-73
2023/04/18 06:57:38;;;;;;;17.80;11.17;;;13.40;1.00;;;;;;5093979;28;20545;-73
2023/04/18 07:00:05;;;;;;;11.03;9.93;;;13.30;1.00;;;;;;5092275;28;20582;-73
2023/04/18 07:02:30;;;;;;;14.67;10.67;;;12.90;1.00;;;;;;5093230;28;20183;-73
2023/04/18 07:04:56;;;;;;;12.90;11.17;;;13.00;1.00;;;;;;5093799;28;20536;-74
2023/04/18 07:07:22;;;;;;;14.93;10.60;;;13.10;1.00;;;;;;5093838;28;20269;-74
2023/04/18 07:09:48;;;;;;;12.03;10.80;;;12.60;1.00;;;;;;5090206;28;20245;-74
2023/04/18 07:12:14;;;;;;;11.97;10.70;;;12.90;1.00;;;;;;5082067;28;20608;-74
2023/04/18 07:14:40;;;;;;;10.77;9.67;;;12.90;1.00;;;;;;5092121;28;20230;-73
2023/04/18 07:17:06;;;;;;;10.60;9.50;;;13.00;1.00;;;;;;5086361;28;20536;-74
2023/04/18 07:19:31;;;;;;;10.50;9.50;;;12.90;1.00;;;;;;5091469;28;20576;-73
2023/04/18 07:21:57;;;;;;;12.17;10.83;;;13.50;1.00;;;;;;5092590;28;20168;-75
2023/04/18 07:24:23;;;;;;;13.87;11.40;;;13.20;1.00;;;;;;5092460;28;20183;-72
2023/04/18 07:26:50;;;;;;;11.87;10.20;;;13.50;1.00;;;;;;5091376;28;20172;-73
2023/04/18 07:29:15;;;;;;;12.20;10.90;;;13.50;1.00;;;;;;5089889;28;20212;-73
2023/04/18 07:31:41;;;;;;;11.67;10.50;;;13.70;1.00;;;;;;5091525;28;20192;-73
2023/04/18 07:34:10;;;;;;;12.40;11.18;;;13.70;99.90;;;;;;5083364;28;20414;-73
2023/04/18 07:36:36;;;;;;;11.87;10.77;;;14.60;1.00;;;;;;5090685;28;20203;-74
2023/04/18 07:39:02;;;;;;;11.77;9.73;;;14.30;99.90;;;;;;5088257;28;20180;-73
2023/04/18 07:41:28;;;;;;;11.97;9.97;;;14.40;1.00;;;;;;5075182;28;20231;-74
2023/04/18 07:43:53;;;;;;;11.40;10.40;;;14.00;99.90;;;;;;5087479;28;20636;-74
2023/04/18 07:46:19;;;;;;;11.83;9.87;;;14.20;99.90;;;;;;5089781;28;20596;-74
2023/04/18 07:48:45;;;;;;;11.63;10.53;;;14.20;99.90;;;;;;5091598;28;20168;-72
2023/04/18 07:51:11;;;;;;;10.70;9.60;;;13.70;1.00;;;;;;5088347;28;20721;-72
2023/04/18 07:53:36;;;;;;;10.90;9.43;;;13.80;1.00;;;;;;5090291;28;20176;-73
2023/04/18 07:56:02;;;;;;;12.33;10.37;;;13.70;1.00;;;;;;5083613;28;20234;-74
2023/04/18 07:58:28;;;;;;;12.97;10.60;;;13.50;1.00;;;;;;5081669;28;20204;-73
2023/04/18 08:00:53;;;;;;;14.27;11.17;;;13.00;1.00;;;;;;5092310;28;20244;-73
2023/04/18 08:03:19;;;;;;;13.00;11.20;;;13.00;1.00;;;;;;5090235;28;20281;-73
2023/04/18 08:05:45;;;;;;;14.60;11.17;;;13.10;1.00;;;;;;5090336;28;20171;-77
2023/04/18 08:08:20;;;;;;;13.03;10.80;;;12.50;1.00;;;;;;5081257;28;20207;-73
2023/04/18 08:10:46;;;;;;;16.80;12.00;;;11.70;1.00;;;;;;5083606;28;20233;-74
2023/04/18 08:13:14;;;;;;;14.97;12.90;;;11.20;1.00;;;;;;5090116;28;20176;-73
2023/04/18 08:15:41;;;;;;;16.23;13.93;;;11.30;1.00;;;;;;5085003;28;20297;-72
2023/04/18 08:18:07;;;;;;;16.63;14.87;;;11.60;1.00;;;;;;5089383;28;20635;-75
2023/04/18 08:20:35;;;;;;;17.10;13.40;;;11.70;1.00;;;;;;5091388;28;20199;-76
2023/04/18 08:23:00;;;;;;;17.87;14.47;;;12.20;1.00;;;;;;5088927;28;21006;-73
2023/04/18 08:25:26;;;;;;;16.37;14.77;;;12.30;1.00;;;;;;5087394;28;20437;-73
2023/04/18 08:27:52;;;;;;;14.43;13.03;;;13.20;1.00;;;;;;5083407;28;20646;-74
2023/04/18 08:30:23;;;;;;;17.40;14.83;;;13.20;1.00;;;;;;5080415;28;20215;-72
2023/04/18 08:32:52;;;;;;;14.07;12.53;;;12.60;1.00;;;;;;5084204;28;20220;-74
2023/04/18 08:35:20;;;;;;;16.63;14.87;;;12.50;1.00;;;;;;5089939;28;20240;-71
2023/04/18 08:37:46;;;;;;;15.30;13.90;;;11.70;1.00;;;;;;5088263;28;20207;-71
2023/04/18 08:40:11;;;;;;;16.27;14.13;;;12.10;1.00;;;;;;5087637;28;20227;-73
2023/04/18 08:42:41;;;;;;;15.50;13.97;;;13.20;1.00;;;;;;5091790;28;20206;-74
2023/04/18 08:45:08;;;;;;;17.63;14.50;;;14.10;1.00;;;;;;5090512;28;20172;-72
2023/04/18 08:47:34;;;;;;;17.37;14.80;;;14.60;1.00;;;;;;5085210;28;20187;-73
2023/04/18 08:50:00;;;;;;;14.60;13.10;;;13.80;1.00;;;;;;5087881;28;20780;-72
2023/04/18 08:52:29;;;;;;;18.40;12.33;;;12.90;1.00;;;;;;5090028;28;20192;-73
2023/04/18 08:54:56;;;;;;;16.93;15.23;;;12.40;1.00;;;;;;5090242;28;20187;-74
2023/04/18 08:57:29;;;;;;;15.40;13.80;;;11.70;1.00;;;;;;5099897;28;20183;-73
2023/04/18 08:59:55;;;;;;;15.27;13.77;;;12.50;1.00;;;;;;5082085;28;20228;-77
2023/04/18 09:02:33;;;;;;;14.00;12.70;;;13.70;1.00;;;;;;5086471;28;20206;-74
2023/04/18 09:04:59;;;;;;;13.90;12.33;;;14.30;1.00;;;;;;5086962;28;20183;-76
2023/04/18 09:07:31;;;;;;;12.33;11.03;;;14.90;1.00;;;;;;5087989;28;20179;-75
2023/04/18 09:09:57;;;;;;;14.57;12.67;;;15.40;1.00;;;;;;5090709;28;20215;-76
2023/04/18 09:12:27;;;;;;;13.50;12.10;;;15.70;99.90;;;;;;5088683;28;20224;-74
2023/04/18 09:15:09;;;;;;;13.43;12.03;;;15.90;99.90;;;;;;5087708;28;20252;-75
2023/04/18 09:17:49;;;;;;;12.83;11.63;;;16.50;1.00;;;;;;5084530;28;20725;-74
2023/04/18 09:20:33;;;;;;;13.80;12.50;;;16.10;1.00;;;;;;5089093;28;20650;-75
2023/04/18 09:23:01;;;;;;;12.77;11.57;;;15.50;1.00;;;;;;5088501;28;20176;-74
2023/04/18 09:25:45;;;;;;;12.63;11.30;;;16.80;99.90;;;;;;5088888;28;20200;-71
2023/04/18 09:28:31;;;;;;;12.77;11.50;;;17.10;1.00;;;;;;5083531;28;20592;-72
2023/04/18 09:31:13;;;;;;;13.90;12.60;;;16.00;1.00;;;;;;5085762;28;20245;-74
2023/04/18 09:33:45;;;;;;;14.63;11.90;;;15.30;1.00;;;;;;5085759;28;20261;-76
2023/04/18 09:36:18;;;;;;;12.90;11.70;;;15.80;1.00;;;;;;5083939;28;20195;-72
2023/04/18 09:38:44;;;;;;;13.10;11.80;;;15.80;99.90;;;;;;5090960;28;20198;-73
2023/04/18 09:41:11;;;;;;;13.90;12.50;;;15.90;1.00;;;;;;5087549;28;20216;-78
2023/04/18 09:43:40;;;;;;;14.83;12.03;;;15.30;1.00;;;;;;5079481;28;20648;-75
2023/04/18 09:46:07;;;;;;;14.43;12.93;;;15.60;1.00;;;;;;5076613;28;20183;-80
2023/04/18 09:48:33;;;;;;;13.80;12.40;;;15.50;1.00;;;;;;5090809;28;20237;-76
2023/04/18 09:51:04;;;;;;;14.93;12.33;;;15.80;1.00;;;;;;5084375;28;20215;-73
2023/04/18 09:53:30;;;;;;;14.17;12.77;;;16.60;1.00;;;;;;5085436;28;20215;-72
2023/04/18 09:55:59;;;;;;;14.83;13.17;;;16.30;99.90;;;;;;5087546;28;20226;-73
2023/04/18 09:58:30;;;;;;;14.03;12.30;;;16.20;99.90;;;;;;5088187;28;20184;-72
2023/04/18 10:00:56;;;;;;;16.30;14.20;;;15.00;99.90;;;;;;5085617;28;20207;-74
2023/04/18 10:03:31;;;;;;;16.57;14.70;;;14.30;1.00;;;;;;5081774;28;20275;-73
2023/04/18 10:06:00;;;;;;;14.43;13.03;;;15.10;99.90;;;;;;5088194;28;20191;-75
2023/04/18 10:08:47;;;;;;;16.33;14.60;;;15.60;25.70;;;;;;5086892;28;20757;-77
2023/04/18 10:11:14;;;;;;;17.57;15.27;;;15.20;1.00;;;;;;5089640;28;20252;-80
2023/04/18 10:13:43;;;;;;;12.67;10.57;;;15.20;99.90;;;;;;5087308;28;20183;-82
2023/04/18 10:16:10;;;;;;;16.77;13.50;;;15.10;1.00;;;;;;5084058;28;20177;-71
2023/04/18 10:18:35;;;;;;;18.13;14.90;;;15.30;14.30;;;;;;5087015;28;20168;-73
2023/04/18 10:21:02;;;;;;;15.93;13.20;;;15.70;1.00;;;;;;5086767;28;20282;-73
2023/04/18 10:23:33;;;;;;;18.17;15.00;;;14.90;1.00;;;;;;5103085;28;20184;-74
2023/04/18 10:25:59;;;;;;;23.40;18.70;;;15.30;1.00;;;;;;5085796;28;20228;-71
2023/04/18 10:28:26;;;;;;;15.40;11.27;;;15.50;1.00;;;;;;5088333;28;20168;-73
2023/04/18 10:31:02;;;;;;;21.17;15.63;;;15.30;1.00;;;;;;5089702;28;20218;-72
2023/04/18 10:33:46;;;;;;;34.73;22.80;;;15.40;99.90;;;;;;5093580;28;20190;-75
2023/04/18 10:36:19;;;;;;;19.07;14.03;;;15.10;99.90;;;;;;5090639;28;20238;-73
2023/04/18 10:38:51;;;;;;;13.77;11.10;;;15.40;1.00;;;;;;5092372;28;20187;-72
2023/04/18 10:41:17;;;;;;;15.13;11.90;;;15.90;1.00;;;;;;5088280;28;20274;-72
2023/04/18 10:44:21;;;;;;;14.47;12.17;;;15.00;99.90;;;;;;5090438;28;20643;-72
2023/04/18 10:46:52;;;;;;;12.97;10.93;;;14.90;1.00;;;;;;5094016;28;20175;-72
2023/04/18 10:49:27;;;;;;;13.93;12.03;;;15.20;99.90;;;;;;5094186;28;20235;-72
2023/04/18 10:51:58;;;;;;;15.10;12.07;;;14.70;99.90;;;;;;5088048;28;20272;-72
2023/04/18 10:54:50;;;;;;;14.90;11.80;;;14.60;1.00;;;;;;5074328;28;20642;-72
2023/04/18 10:57:16;;;;;;;16.87;11.30;;;14.10;99.90;;;;;;5091828;28;20180;-73
2023/04/18 10:59:43;;;;;;;15.70;12.30;;;14.00;99.90;;;;;;5093831;28;20195;-72
2023/04/18 11:02:25;;;;;;;14.53;10.83;;;13.70;1.00;;;;;;5092206;28;20189;-72
2023/04/18 11:04:58;;;;;;;15.00;12.70;;;13.80;99.90;;;;;;5092907;28;20180;-73
2023/04/18 11:07:47;;;;;;;13.17;11.83;;;14.00;1.00;;;;;;5092181;28;20634;-73
2023/04/18 11:10:19;;;;;;;13.50;10.43;;;14.00;99.90;;;;;;5091478;28;20211;-72
2023/04/18 11:12:48;;;;;;;20.10;11.93;;;13.90;99.90;;;;;;5092717;28;20172;-72
2023/04/18 11:15:22;;;;;;;13.73;12.33;;;13.70;99.90;;;;;;5084610;28;20187;-74
2023/04/18 11:18:00;;;;;;;12.27;10.97;;;14.00;99.90;;;;;;5090994;28;20172;-73
2023/04/18 11:20:27;;;;;;;13.47;12.03;;;14.70;99.90;;;;;;5093028;28;20183;-73
2023/04/18 11:22:54;;;;;;;13.13;11.83;;;14.80;99.90;;;;;;5092170;28;20176;-75
2023/04/18 11:25:35;;;;;;;11.70;10.13;;;14.80;99.90;;;;;;5093078;28;20377;-73
2023/04/18 11:28:02;;;;;;;14.07;12.40;;;14.70;1.00;;;;;;5092583;28;20254;-72
2023/04/18 11:30:39;;;;;;;14.57;13.17;;;14.20;80.40;;;;;;5084525;28;20317;-72
2023/04/18 11:33:08;;;;;;;18.77;12.50;;;13.70;1.00;;;;;;5091512;28;20180;-72
2023/04/18 11:35:42;;;;;;;16.80;12.77;;;13.80;1.00;;;;;;5090798;28;20314;-74
2023/04/18 11:38:09;;;;;;;13.10;11.70;;;14.00;1.00;;;;;;5082147;28;20176;-73
2023/04/18 11:40:38;;;;;;;11.87;9.43;;;14.20;99.90;;;;;;5087555;28;20226;-71
2023/04/18 11:43:05;;;;;;;18.23;10.87;;;14.10;99.90;;;;;;5087400;28;20262;-73
2023/04/18 11:45:31;;;;;;;15.13;10.37;;;14.30;99.90;;;;;;5089214;28;20218;-71
2023/04/18 11:47:58;;;;;;;13.50;11.47;;;13.90;99.90;;;;;;5092032;28;20179;-72
2023/04/18 11:50:24;;;;;;;12.63;11.13;;;13.90;99.90;;;;;;5093040;28;20206;-72
2023/04/18 11:52:52;;;;;;;15.57;10.83;;;13.60;99.90;;;;;;5091573;28;20270;-72
2023/04/18 11:55:25;;;;;;;15.57;11.30;;;13.40;1.00;;;;;;5092415;28;20172;-74
2023/04/18 11:58:01;;;;;;;10.23;8.97;;;13.50;1.00;;;;;;5088754;28;20198;-75
2023/04/18 12:00:37;;;;;;;11.47;8.57;;;13.80;97.00;;;;;;5071074;28;20176;-73
2023/04/18 12:03:14;;;;;;;11.83;10.23;;;14.00;1.00;;;;;;5089922;28;20179;-74
2023/04/18 12:05:43;;;;;;;13.80;9.90;;;13.80;32.70;;;;;;5084751;28;20179;-74
2023/04/18 12:08:17;;;;;;;12.03;10.90;;;14.00;1.00;;;;;;5088856;28;20175;-75
2023/04/18 12:10:50;;;;;;;12.73;11.47;;;14.10;1.00;;;;;;5091890;28;20208;-75
2023/04/18 12:13:17;;;;;;;11.87;10.60;;;14.00;99.90;;;;;;5090163;28;20172;-73
2023/04/18 12:15:45;;;;;;;12.10;11.00;;;14.20;99.90;;;;;;5088759;28;20171;-75
2023/04/18 12:18:16;;;;;;;12.90;9.83;;;14.20;1.00;;;;;;5087228;28;20688;-73
2023/04/18 12:20:48;;;;;;;9.63;8.63;;;14.50;99.90;;;;;;5084451;28;20200;-75
2023/04/18 12:23:32;;;;;;;11.97;10.93;;;14.40;1.00;;;;;;5086801;28;20176;-75
2023/04/18 12:26:03;;;;;;;12.80;11.13;;;14.10;1.00;;;;;;5088274;28;20183;-73
2023/04/18 12:28:33;;;;;;;11.03;9.93;;;14.30;99.90;;;;;;5083826;28;20171;-73
2023/04/18 12:30:59;;;;;;;12.00;10.77;;;14.20;1.00;;;;;;5081718;28;20219;-74
2023/04/18 12:33:30;;;;;;;12.53;11.27;;;14.40;1.00;;;;;;5089974;28;20183;-75
2023/04/18 12:35:56;;;;;;;15.23;13.53;;;14.20;1.00;;;;;;5091294;28;20203;-75
2023/04/18 12:38:22;;;;;;;12.97;11.67;;;13.90;99.90;;;;;;5090683;28;20180;-75
2023/04/18 12:40:49;;;;;;;13.27;12.17;;;14.00;99.90;;;;;;5087777;28;20211;-74